createdAt,value
2022-12-26T00:00:55.698Z,8.64
2022-12-26T00:03:23.546Z,8.55
2022-12-26T00:05:51.203Z,8.51
2022-12-26T00:08:19.179Z,8.53
2022-12-26T00:10:46.770Z,8.53
2022-12-26T00:13:37.380Z,8.51
2022-12-26T00:16:01.978Z,8.55
2022-12-26T00:18:29.560Z,8.65
2022-12-26T00:20:57.617Z,8.60
2022-12-26T00:23:25.088Z,8.56
2022-12-26T00:25:52.581Z,8.57
2022-12-26T00:28:20.247Z,8.54
2022-12-26T00:30:47.769Z,8.57
2022-12-26T00:33:15.332Z,8.58
2022-12-26T00:35:42.900Z,8.57
2022-12-26T00:38:10.438Z,8.52
2022-12-26T00:40:42.908Z,8.49
2022-12-26T00:43:10.955Z,8.58
2022-12-26T00:45:38.756Z,8.56
2022-12-26T00:48:06.646Z,8.48
2022-12-26T00:50:35.065Z,8.62
2022-12-26T00:53:02.830Z,8.60
2022-12-26T00:55:30.307Z,8.62
2022-12-26T00:57:57.964Z,8.49
2022-12-26T01:00:25.551Z,8.61
2022-12-26T01:02:53.189Z,8.54
2022-12-26T01:05:20.836Z,8.59
2022-12-26T01:08:21.682Z,8.62
2022-12-26T01:10:36.090Z,8.54
2022-12-26T01:13:04.053Z,8.48
2022-12-26T01:15:31.551Z,8.50
2022-12-26T01:18:00.581Z,8.49
2022-12-26T01:20:28.936Z,8.47
2022-12-26T01:22:56.836Z,8.50
2022-12-26T01:25:24.802Z,8.43
2022-12-26T01:27:52.633Z,8.48
2022-12-26T01:30:20.375Z,8.53
2022-12-26T01:32:47.920Z,8.51
2022-12-26T01:35:15.417Z,8.55
2022-12-26T01:37:42.991Z,8.55
2022-12-26T01:40:13.094Z,8.61
2022-12-26T01:42:42.550Z,8.57
2022-12-26T01:45:32.283Z,8.60
2022-12-26T01:48:05.154Z,8.63
2022-12-26T01:50:53.429Z,8.54
2022-12-26T01:53:47.015Z,8.54
2022-12-26T01:56:19.200Z,8.53
2022-12-26T01:59:07.784Z,8.53
2022-12-26T02:01:39.286Z,8.55
2022-12-26T02:04:28.443Z,8.52
2022-12-26T02:06:56.173Z,8.53
2022-12-26T02:09:23.925Z,8.51
2022-12-26T02:12:35.413Z,8.50
2022-12-26T02:14:51.255Z,8.42
2022-12-26T02:17:19.139Z,8.38
2022-12-26T02:20:05.358Z,8.40
2022-12-26T02:22:35.810Z,8.42
2022-12-26T02:25:34.247Z,8.39
2022-12-26T02:28:23.546Z,8.40
2022-12-26T02:31:29.549Z,8.43
2022-12-26T02:34:20.016Z,8.37
2022-12-26T02:36:56.392Z,8.36
2022-12-26T02:39:45.744Z,8.34
2022-12-26T02:42:30.000Z,8.27
2022-12-26T02:45:26.466Z,8.19
2022-12-26T02:48:14.504Z,8.31
2022-12-26T02:51:36.664Z,8.34
2022-12-26T02:54:52.448Z,8.33
2022-12-26T02:57:42.311Z,8.25
2022-12-26T03:00:32.280Z,8.35
2022-12-26T03:03:38.977Z,8.35
2022-12-26T03:06:46.329Z,8.38
2022-12-26T03:09:36.968Z,8.44
2022-12-26T03:13:03.532Z,8.43
2022-12-26T03:15:55.431Z,8.44
2022-12-26T03:18:58.595Z,8.42
2022-12-26T03:21:13.641Z,8.45
2022-12-26T03:23:44.035Z,8.46
2022-12-26T03:26:36.047Z,8.44
2022-12-26T03:29:19.218Z,8.49
2022-12-26T03:31:46.866Z,8.50
2022-12-26T03:34:20.015Z,8.43
2022-12-26T03:37:01.622Z,8.36
2022-12-26T03:40:07.742Z,8.34
2022-12-26T03:43:27.069Z,8.35
2022-12-26T03:46:25.849Z,8.28
2022-12-26T03:49:35.487Z,8.25
2022-12-26T03:52:45.489Z,8.28
2022-12-26T03:55:42.546Z,8.35
2022-12-26T03:59:09.065Z,8.30
2022-12-26T04:02:06.796Z,8.23
2022-12-26T04:04:55.795Z,8.26
2022-12-26T04:08:04.930Z,8.27
2022-12-26T04:11:01.543Z,8.27
2022-12-26T04:14:05.279Z,8.23
2022-12-26T04:16:58.305Z,8.21
2022-12-26T04:19:28.553Z,8.19
2022-12-26T04:22:25.768Z,8.14
2022-12-26T04:25:50.346Z,8.11
2022-12-26T04:28:37.978Z,8.09
2022-12-26T04:31:32.183Z,8.05
2022-12-26T04:34:22.439Z,7.94
2022-12-26T04:37:18.992Z,7.95
2022-12-26T04:40:08.188Z,7.99
2022-12-26T04:42:54.145Z,7.98
2022-12-26T04:45:22.731Z,7.95
2022-12-26T04:48:05.933Z,7.99
2022-12-26T04:50:33.537Z,7.99
2022-12-26T04:53:01.437Z,7.93
2022-12-26T04:55:35.772Z,7.90
2022-12-26T04:58:03.338Z,7.85
2022-12-26T05:00:30.990Z,7.78
2022-12-26T05:03:19.524Z,7.77
2022-12-26T05:06:08.096Z,7.77
2022-12-26T05:08:59.481Z,7.76
2022-12-26T05:11:27.784Z,7.73
2022-12-26T05:13:56.943Z,7.70
2022-12-26T05:16:45.431Z,7.70
2022-12-26T05:19:32.673Z,7.69
2022-12-26T05:22:19.126Z,7.70
2022-12-26T05:25:04.777Z,7.68
2022-12-26T05:28:11.661Z,7.69
2022-12-26T05:30:39.163Z,7.73
2022-12-26T05:33:24.431Z,7.73
2022-12-26T05:35:51.960Z,7.71
2022-12-26T05:38:19.510Z,7.70
2022-12-26T05:40:47.026Z,7.64
2022-12-26T05:43:14.526Z,7.61
2022-12-26T05:45:42.048Z,7.62
2022-12-26T05:48:09.582Z,7.61
2022-12-26T05:50:37.095Z,7.64
2022-12-26T05:53:04.999Z,7.69
2022-12-26T05:55:32.547Z,7.70
2022-12-26T05:58:03.786Z,7.67
2022-12-26T06:00:31.884Z,7.73
2022-12-26T06:03:03.094Z,7.74
2022-12-26T06:05:30.713Z,7.84
2022-12-26T06:07:58.304Z,7.84
2022-12-26T06:10:26.942Z,7.87
2022-12-26T06:12:54.437Z,7.82
2022-12-26T06:15:23.271Z,7.74
2022-12-26T06:17:50.763Z,7.79
2022-12-26T06:20:18.270Z,7.73
2022-12-26T06:22:45.810Z,7.73
2022-12-26T06:25:13.551Z,7.72
2022-12-26T06:27:43.902Z,7.71
2022-12-26T06:30:12.137Z,7.72
2022-12-26T06:32:39.741Z,7.73
2022-12-26T06:35:08.962Z,7.65
2022-12-26T06:37:36.635Z,7.72
2022-12-26T06:40:04.336Z,7.76
2022-12-26T06:42:32.718Z,7.77
2022-12-26T06:45:00.274Z,7.69
2022-12-26T06:47:27.743Z,7.91
2022-12-26T06:49:55.202Z,7.94
2022-12-26T06:52:22.704Z,7.95
2022-12-26T06:54:50.240Z,7.97
2022-12-26T06:57:17.780Z,8.02
2022-12-26T06:59:45.257Z,8.07
2022-12-26T07:02:12.879Z,8.08
2022-12-26T07:04:40.424Z,8.17
2022-12-26T07:07:08.092Z,8.16
2022-12-26T07:09:35.663Z,8.13
2022-12-26T07:12:03.194Z,8.10
2022-12-26T07:14:30.709Z,8.09
2022-12-26T07:16:58.224Z,8.13
2022-12-26T07:19:25.765Z,8.12
2022-12-26T07:21:53.313Z,8.06
2022-12-26T07:24:23.369Z,8.09
2022-12-26T07:26:51.344Z,8.13
2022-12-26T07:29:19.299Z,8.08
2022-12-26T07:31:46.965Z,8.06
2022-12-26T07:34:14.790Z,8.04
2022-12-26T07:36:42.792Z,8.09
2022-12-26T07:39:10.402Z,8.12
2022-12-26T07:41:55.261Z,8.19
2022-12-26T07:44:22.883Z,8.16
2022-12-26T07:46:50.454Z,8.19
2022-12-26T07:49:18.154Z,8.22
2022-12-26T07:51:45.698Z,8.25
2022-12-26T07:54:13.555Z,8.34
2022-12-26T07:56:41.763Z,8.38
2022-12-26T07:59:14.469Z,8.43
2022-12-26T08:01:43.192Z,8.44
2022-12-26T08:04:12.566Z,8.39
2022-12-26T08:06:40.512Z,8.40
2022-12-26T08:09:08.823Z,8.41
2022-12-26T08:11:36.685Z,8.41
2022-12-26T08:14:04.659Z,8.44
2022-12-26T08:16:32.315Z,8.45
2022-12-26T08:18:59.980Z,8.48
2022-12-26T08:21:28.371Z,8.53
2022-12-26T08:23:56.740Z,8.56
2022-12-26T08:26:24.351Z,8.54
2022-12-26T08:28:53.148Z,8.50
2022-12-26T08:31:21.901Z,8.63
2022-12-26T08:33:49.657Z,8.60
2022-12-26T08:36:19.128Z,8.64
2022-12-26T08:38:47.203Z,8.67
2022-12-26T08:41:15.007Z,8.71
2022-12-26T08:44:25.178Z,8.70
2022-12-26T08:46:30.143Z,8.72
2022-12-26T08:48:57.667Z,8.75
2022-12-26T08:51:26.199Z,8.75
2022-12-26T08:53:55.950Z,8.78
2022-12-26T08:56:26.223Z,8.77
2022-12-26T08:58:54.179Z,8.73
2022-12-26T09:01:27.698Z,8.76
2022-12-26T09:04:00.770Z,8.74
2022-12-26T09:06:29.759Z,8.65
2022-12-26T09:08:57.222Z,8.62
2022-12-26T09:11:27.358Z,8.58
2022-12-26T09:13:55.682Z,8.54
2022-12-26T09:16:28.840Z,8.52
2022-12-26T09:19:01.781Z,8.55
2022-12-26T09:21:30.509Z,8.50
2022-12-26T09:24:03.827Z,8.46
2022-12-26T09:26:31.764Z,8.39
2022-12-26T09:28:59.482Z,8.39
2022-12-26T09:31:33.299Z,8.35
2022-12-26T09:34:03.103Z,8.35
2022-12-26T09:36:32.967Z,8.31
2022-12-26T09:39:01.150Z,8.32
2022-12-26T09:41:35.831Z,8.24
2022-12-26T09:44:24.974Z,7.71
2022-12-26T09:46:58.385Z,7.47
2022-12-26T09:49:31.853Z,7.35
2022-12-26T09:52:10.437Z,7.15
2022-12-26T09:54:43.869Z,7.20
2022-12-26T09:57:20.118Z,7.09
2022-12-26T09:59:55.622Z,7.05
2022-12-26T10:02:26.143Z,7.05
2022-12-26T10:04:55.424Z,7.07
2022-12-26T10:07:45.357Z,7.08
2022-12-26T10:10:12.929Z,7.11
2022-12-26T10:13:28.077Z,7.05
2022-12-26T10:16:48.008Z,7.10
2022-12-26T10:19:21.491Z,7.14
2022-12-26T10:22:16.385Z,7.00
2022-12-26T10:24:45.805Z,6.94
2022-12-26T10:27:18.998Z,7.05
2022-12-26T10:30:09.122Z,6.97
2022-12-26T10:32:45.437Z,7.03
2022-12-26T10:35:21.596Z,7.05
2022-12-26T10:37:50.540Z,7.01
2022-12-26T10:40:23.043Z,6.94
2022-12-26T10:42:55.875Z,6.92
2022-12-26T10:45:33.447Z,6.92
2022-12-26T10:48:01.025Z,6.97
2022-12-26T10:50:31.932Z,6.85
2022-12-26T10:53:01.155Z,6.72
2022-12-26T10:55:34.857Z,6.76
2022-12-26T10:58:08.114Z,6.81
2022-12-26T11:00:35.795Z,6.85
2022-12-26T11:03:05.277Z,6.94
2022-12-26T11:08:24.793Z,6.93
2022-12-26T11:11:07.315Z,6.87
2022-12-26T11:13:47.886Z,6.83
2022-12-26T11:16:26.666Z,6.87
2022-12-26T11:18:55.232Z,6.83
2022-12-26T11:21:30.372Z,6.98
2022-12-26T11:24:09.937Z,6.83
2022-12-26T11:26:39.417Z,6.80
2022-12-26T11:29:08.523Z,6.82
2022-12-26T11:31:36.673Z,6.80
2022-12-26T11:34:10.044Z,6.67
2022-12-26T11:36:44.165Z,6.95
2022-12-26T11:39:25.707Z,7.03
2022-12-26T11:42:00.617Z,7.15
2022-12-26T11:44:36.417Z,7.15
2022-12-26T11:47:24.468Z,6.98
2022-12-26T11:50:08.195Z,7.05
2022-12-26T11:53:06.778Z,7.13
2022-12-26T11:55:38.142Z,7.04
2022-12-26T11:58:25.382Z,7.05
2022-12-26T12:00:54.324Z,7.11
2022-12-26T12:03:24.040Z,7.05
2022-12-26T12:05:56.178Z,7.23
2022-12-26T12:08:32.734Z,7.26
2022-12-26T12:11:33.864Z,7.34
2022-12-26T12:14:32.594Z,7.04
2022-12-26T12:17:08.296Z,7.18
2022-12-26T12:20:06.854Z,7.19
2022-12-26T12:22:49.353Z,7.10
2022-12-26T12:25:25.903Z,7.17
2022-12-26T12:28:52.967Z,7.01
2022-12-26T12:31:47.977Z,7.04
2022-12-26T12:34:32.541Z,6.90
2022-12-26T12:37:16.168Z,6.92
2022-12-26T12:40:25.300Z,6.75
2022-12-26T12:43:15.845Z,6.71
2022-12-26T12:46:06.356Z,6.54
2022-12-26T12:49:25.066Z,6.51
2022-12-26T12:51:55.583Z,6.43
2022-12-26T12:54:42.503Z,6.40
2022-12-26T12:57:12.774Z,6.39
2022-12-26T12:59:55.149Z,6.37
2022-12-26T13:02:33.159Z,6.29
2022-12-26T13:05:12.785Z,6.35
2022-12-26T13:07:47.391Z,6.28
2022-12-26T13:10:33.091Z,6.25
2022-12-26T13:13:10.756Z,6.28
2022-12-26T13:15:48.035Z,6.28
2022-12-26T13:18:19.957Z,6.32
2022-12-26T13:20:49.455Z,6.32
2022-12-26T13:24:04.410Z,6.32
2022-12-26T13:26:50.945Z,6.36
2022-12-26T13:29:36.894Z,6.24
2022-12-26T13:32:13.894Z,6.15
2022-12-26T13:34:45.304Z,6.10
2022-12-26T13:37:31.785Z,6.08
2022-12-26T13:40:04.921Z,6.03
2022-12-26T13:43:28.229Z,5.95
2022-12-26T13:45:58.136Z,5.98
2022-12-26T13:48:32.294Z,6.07
2022-12-26T13:51:02.915Z,6.07
2022-12-26T13:53:54.771Z,6.00
2022-12-26T13:56:22.334Z,5.97
2022-12-26T13:59:09.080Z,5.93
2022-12-26T14:02:14.613Z,5.86
2022-12-26T14:05:02.412Z,5.83
2022-12-26T14:07:41.036Z,5.77
2022-12-26T14:10:16.202Z,5.71
2022-12-26T14:13:30.851Z,5.61
2022-12-26T14:16:28.776Z,5.56
2022-12-26T14:19:17.530Z,5.65
2022-12-26T14:21:51.457Z,5.67
2022-12-26T14:24:45.306Z,5.67
2022-12-26T14:27:25.139Z,5.64
2022-12-26T14:30:23.833Z,5.60
2022-12-26T14:33:12.908Z,5.51
2022-12-26T14:36:11.989Z,5.47
2022-12-26T14:38:56.042Z,5.43
2022-12-26T14:41:47.340Z,5.52
2022-12-26T14:44:22.210Z,5.45
2022-12-26T14:46:49.755Z,5.45
2022-12-26T14:49:35.848Z,5.45
2022-12-26T14:52:33.772Z,5.43
2022-12-26T14:55:01.505Z,5.40
2022-12-26T14:57:47.069Z,5.42
2022-12-26T15:00:23.004Z,5.43
2022-12-26T15:02:59.503Z,5.50
2022-12-26T15:05:29.924Z,5.47
2022-12-26T15:08:21.870Z,5.35
2022-12-26T15:10:58.214Z,5.26
2022-12-26T15:14:06.776Z,5.16
2022-12-26T15:16:59.243Z,5.10
2022-12-26T15:19:46.951Z,4.85
2022-12-26T15:22:36.201Z,5.00
2022-12-26T15:25:38.012Z,4.71
2022-12-26T15:28:41.255Z,4.91
2022-12-26T15:31:35.933Z,4.83
2022-12-26T15:34:12.337Z,4.77
2022-12-26T15:37:02.824Z,4.72
2022-12-26T15:39:50.023Z,4.72
2022-12-26T15:42:39.123Z,4.55
2022-12-26T15:45:15.086Z,4.57
2022-12-26T15:47:56.276Z,4.56
2022-12-26T15:50:32.371Z,4.45
2022-12-26T15:53:11.973Z,4.48
2022-12-26T15:56:02.919Z,4.45
2022-12-26T15:58:49.184Z,4.42
2022-12-26T16:01:48.881Z,4.34
2022-12-26T16:04:28.285Z,4.33
2022-12-26T16:06:55.726Z,4.31
2022-12-26T16:09:49.757Z,4.28
2022-12-26T16:12:32.828Z,4.22
2022-12-26T16:15:12.330Z,4.26
2022-12-26T16:17:41.359Z,4.23
2022-12-26T16:20:49.997Z,4.28
2022-12-26T16:23:21.251Z,4.31
2022-12-26T16:25:56.748Z,4.25
2022-12-26T16:28:32.460Z,4.28
2022-12-26T16:31:00.891Z,4.24
2022-12-26T16:33:36.024Z,4.32
2022-12-26T16:36:03.619Z,4.28
2022-12-26T16:38:32.910Z,4.24
2022-12-26T16:41:00.668Z,4.17
2022-12-26T16:43:31.128Z,4.13
2022-12-26T16:46:04.333Z,4.05
2022-12-26T16:48:34.212Z,4.07
2022-12-26T16:51:05.277Z,4.04
2022-12-26T16:53:35.616Z,3.99
2022-12-26T16:56:27.751Z,4.05
2022-12-26T16:59:18.576Z,4.00
2022-12-26T17:02:00.777Z,4.00
2022-12-26T17:04:30.556Z,4.02
2022-12-26T17:07:00.483Z,3.96
2022-12-26T17:09:31.166Z,3.91
2022-12-26T17:12:04.953Z,3.71
2022-12-26T17:14:36.420Z,3.88
2022-12-26T17:17:07.039Z,3.87
2022-12-26T17:19:37.201Z,3.87
2022-12-26T17:22:17.823Z,3.88
2022-12-26T17:24:53.111Z,3.88
2022-12-26T17:27:25.865Z,3.87
2022-12-26T17:30:20.895Z,3.95
2022-12-26T17:32:49.156Z,3.91
2022-12-26T17:35:41.391Z,3.95
2022-12-26T17:38:26.891Z,3.93
2022-12-26T17:40:58.093Z,4.02
2022-12-26T17:43:37.796Z,4.09
2022-12-26T17:46:07.357Z,4.12
2022-12-26T17:48:35.699Z,4.23
2022-12-26T17:51:06.194Z,4.32
2022-12-26T17:53:36.989Z,4.33
2022-12-26T17:56:27.196Z,4.41
2022-12-26T17:58:55.607Z,4.36
2022-12-26T18:01:23.419Z,4.38
2022-12-26T18:03:52.956Z,4.39
2022-12-26T18:06:21.910Z,4.45
2022-12-26T18:08:49.477Z,4.45
2022-12-26T18:11:17.106Z,4.42
2022-12-26T18:13:45.327Z,4.41
2022-12-26T18:16:17.638Z,4.28
2022-12-26T18:18:45.893Z,4.25
2022-12-26T18:21:15.220Z,4.18
2022-12-26T18:23:42.996Z,4.16
2022-12-26T18:26:25.217Z,4.13
2022-12-26T18:28:52.878Z,4.09
2022-12-26T18:31:21.261Z,4.06
2022-12-26T18:33:48.991Z,4.04
2022-12-26T18:36:18.242Z,4.12
2022-12-26T18:38:46.005Z,4.15
2022-12-26T18:41:19.018Z,4.06
2022-12-26T18:43:47.069Z,4.03
2022-12-26T18:46:26.977Z,3.97
2022-12-26T18:48:56.665Z,3.95
2022-12-26T18:51:25.403Z,4.01
2022-12-26T18:53:53.312Z,4.05
2022-12-26T18:56:23.471Z,4.13
2022-12-26T18:58:57.600Z,4.17
2022-12-26T19:01:26.438Z,4.15
2022-12-26T19:03:55.093Z,4.19
2022-12-26T19:06:26.670Z,4.20
2022-12-26T19:08:54.253Z,4.20
2022-12-26T19:11:22.381Z,4.20
2022-12-26T19:13:49.971Z,4.15
2022-12-26T19:16:17.739Z,4.15
2022-12-26T19:18:45.315Z,4.07
2022-12-26T19:21:17.319Z,4.09
2022-12-26T19:23:47.846Z,4.14
2022-12-26T19:26:18.022Z,4.12
2022-12-26T19:28:45.732Z,4.14
2022-12-26T19:31:16.471Z,4.15
2022-12-26T19:33:44.084Z,4.18
2022-12-26T19:36:12.384Z,4.22
2022-12-26T19:38:39.931Z,4.26
2022-12-26T19:41:12.996Z,4.23
2022-12-26T19:43:41.274Z,4.26
2022-12-26T19:46:12.161Z,4.25
2022-12-26T19:48:40.151Z,4.26
2022-12-26T19:51:12.581Z,4.30
2022-12-26T19:53:40.310Z,4.28
2022-12-26T19:56:13.327Z,4.26
2022-12-26T19:58:41.458Z,4.29
2022-12-26T20:01:14.394Z,4.22
2022-12-26T20:03:42.294Z,4.17
2022-12-26T20:06:17.333Z,4.19
2022-12-26T20:08:46.842Z,4.18
2022-12-26T20:11:23.717Z,4.11
2022-12-26T20:13:51.986Z,4.20
2022-12-26T20:17:02.705Z,4.13
2022-12-26T20:19:10.159Z,4.15
2022-12-26T20:21:38.384Z,4.16
2022-12-26T20:24:06.558Z,4.17
2022-12-26T20:26:34.088Z,4.08
2022-12-26T20:29:03.045Z,4.00
2022-12-26T20:31:32.624Z,3.93
2022-12-26T20:34:00.766Z,3.86
2022-12-26T20:36:31.215Z,3.78
2022-12-26T20:39:01.280Z,3.77
2022-12-26T20:41:29.732Z,3.62
2022-12-26T20:43:57.677Z,3.72
2022-12-26T20:46:28.460Z,3.73
2022-12-26T20:48:56.816Z,3.69
2022-12-26T20:51:31.620Z,3.69
2022-12-26T20:54:03.066Z,3.71
2022-12-26T20:56:30.956Z,3.73
2022-12-26T20:58:59.590Z,3.77
2022-12-26T21:01:28.273Z,3.84
2022-12-26T21:03:57.293Z,3.85
2022-12-26T21:06:36.319Z,3.77
2022-12-26T21:09:06.504Z,3.79
2022-12-26T21:11:37.972Z,3.82
2022-12-26T21:14:09.114Z,3.81
2022-12-26T21:16:52.003Z,3.80
2022-12-26T21:19:20.542Z,3.81
2022-12-26T21:21:51.752Z,3.81
2022-12-26T21:24:21.324Z,3.82
2022-12-26T21:26:49.557Z,3.76
2022-12-26T21:29:25.367Z,3.71
2022-12-26T21:31:54.014Z,3.73
2022-12-26T21:34:23.674Z,3.79
2022-12-26T21:37:10.293Z,3.81
2022-12-26T21:39:38.986Z,3.83
2022-12-26T21:42:08.469Z,3.74
2022-12-26T21:44:40.353Z,3.68
2022-12-26T21:47:08.816Z,3.76
2022-12-26T21:49:37.432Z,3.78
2022-12-26T21:52:06.959Z,3.68
2022-12-26T21:54:53.034Z,3.76
2022-12-26T21:57:21.452Z,3.72
2022-12-26T21:59:58.769Z,3.72
2022-12-26T22:02:50.634Z,3.69
2022-12-26T22:05:19.833Z,3.70
2022-12-26T22:07:48.492Z,3.64
2022-12-26T22:10:30.222Z,3.61
2022-12-26T22:12:58.054Z,3.60
2022-12-26T22:15:43.808Z,3.58
2022-12-26T22:18:11.603Z,3.49
2022-12-26T22:20:39.090Z,3.48
2022-12-26T22:23:06.876Z,3.46
2022-12-26T22:25:34.470Z,3.41
2022-12-26T22:28:01.966Z,3.41
2022-12-26T22:30:29.514Z,3.32
2022-12-26T22:32:57.075Z,3.39
2022-12-26T22:35:24.617Z,3.41
2022-12-26T22:37:52.112Z,3.40
2022-12-26T22:40:19.687Z,3.40
2022-12-26T22:42:47.196Z,3.40
2022-12-26T22:45:14.844Z,3.36
2022-12-26T22:47:42.348Z,3.32
2022-12-26T22:50:15.046Z,3.35
2022-12-26T22:52:42.778Z,3.39
2022-12-26T22:55:11.028Z,3.45
2022-12-26T22:57:38.593Z,3.45
2022-12-26T23:00:11.077Z,3.35
2022-12-26T23:02:39.091Z,3.45
2022-12-26T23:05:07.445Z,3.42
2022-12-26T23:07:35.215Z,3.43
2022-12-26T23:10:03.009Z,3.54
2022-12-26T23:12:45.744Z,3.53
2022-12-26T23:15:16.305Z,3.62
2022-12-26T23:18:26.137Z,3.59
2022-12-26T23:21:12.467Z,3.63
2022-12-26T23:23:40.412Z,3.56
2022-12-26T23:26:07.998Z,3.53
2022-12-26T23:28:52.972Z,3.63
2022-12-26T23:31:20.505Z,3.69
2022-12-26T23:33:48.045Z,3.78
2022-12-26T23:36:15.587Z,3.81
2022-12-26T23:38:43.064Z,3.86
2022-12-26T23:41:10.543Z,3.84
2022-12-26T23:43:38.050Z,3.85
2022-12-26T23:46:10.712Z,3.84
2022-12-26T23:48:38.304Z,3.88
2022-12-26T23:51:08.269Z,3.85
2022-12-26T23:53:36.675Z,3.77
2022-12-26T23:56:08.237Z,3.76
2022-12-26T23:58:35.791Z,3.81
